createdAt,value
2023-03-29T00:01:42.037Z,2.15
2023-03-29T00:04:10.134Z,2.38
2023-03-29T00:06:37.790Z,2.53
2023-03-29T00:09:05.817Z,2.42
2023-03-29T00:11:32.504Z,3.08
2023-03-29T00:13:59.164Z,2.85
2023-03-29T00:16:26.011Z,2.83
2023-03-29T00:18:52.665Z,3.00
2023-03-29T00:21:19.290Z,2.75
2023-03-29T00:23:46.031Z,2.95
2023-03-29T00:26:12.712Z,2.60
2023-03-29T00:28:39.336Z,2.50
2023-03-29T00:31:13.965Z,3.47
2023-03-29T00:36:08.758Z,3.13
2023-03-29T00:38:36.053Z,3.13
2023-03-29T00:41:04.283Z,3.08
2023-03-29T00:43:31.183Z,3.03
2023-03-29T00:45:57.903Z,3.25
2023-03-29T00:48:28.988Z,2.45
2023-03-29T00:51:09.833Z,3.80
2023-03-29T00:53:39.590Z,3.03
2023-03-29T00:56:17.541Z,3.08
2023-03-29T00:58:59.530Z,3.35
2023-03-29T01:01:42.318Z,3.42
2023-03-29T01:04:21.418Z,2.92
2023-03-29T01:07:21.984Z,4.28
2023-03-29T01:10:12.394Z,2.25
2023-03-29T01:12:48.588Z,2.75
2023-03-29T01:15:19.954Z,3.05
2023-03-29T01:17:55.429Z,3.40
2023-03-29T01:20:25.132Z,3.42
2023-03-29T01:23:26.944Z,3.78
2023-03-29T01:26:14.068Z,3.63
2023-03-29T01:28:49.505Z,3.75
2023-03-29T01:31:28.267Z,3.08
2023-03-29T01:34:27.152Z,3.67
2023-03-29T01:37:00.828Z,3.17
2023-03-29T01:39:27.555Z,3.92
2023-03-29T01:42:09.843Z,3.50
2023-03-29T01:45:09.806Z,3.55
2023-03-29T01:47:54.678Z,3.15
2023-03-29T01:50:37.820Z,3.35
2023-03-29T01:53:17.497Z,3.60
2023-03-29T01:55:49.469Z,3.90
2023-03-29T01:58:18.697Z,3.33
2023-03-29T02:00:46.249Z,3.90
2023-03-29T02:03:17.599Z,3.85
2023-03-29T02:05:45.544Z,4.22
2023-03-29T02:08:14.290Z,4.20
2023-03-29T02:10:42.445Z,3.40
2023-03-29T02:13:09.157Z,3.67
2023-03-29T02:15:35.875Z,4.20
2023-03-29T02:18:03.845Z,4.32
2023-03-29T02:20:36.940Z,3.67
2023-03-29T02:23:21.350Z,4.95
2023-03-29T02:25:50.679Z,4.70
2023-03-29T02:28:17.408Z,3.90
2023-03-29T02:31:14.933Z,3.95
2023-03-29T02:33:52.964Z,3.75
2023-03-29T02:36:28.561Z,4.05
2023-03-29T02:38:58.573Z,3.72
2023-03-29T02:41:26.375Z,4.10
2023-03-29T02:43:55.908Z,3.67
2023-03-29T02:46:23.690Z,4.15
2023-03-29T02:48:52.452Z,3.85
2023-03-29T02:51:24.038Z,4.07
2023-03-29T02:54:01.677Z,3.65
2023-03-29T02:56:28.641Z,4.72
2023-03-29T02:58:55.326Z,4.07
2023-03-29T03:01:22.915Z,4.40
2023-03-29T03:03:50.639Z,4.78
2023-03-29T03:06:18.276Z,4.43
2023-03-29T03:08:45.014Z,4.28
2023-03-29T03:11:11.633Z,3.50
2023-03-29T03:13:38.270Z,3.72
2023-03-29T03:16:05.391Z,3.95
2023-03-29T03:18:32.560Z,4.28
2023-03-29T03:21:01.721Z,3.45
2023-03-29T03:23:29.381Z,4.25
2023-03-29T03:25:56.732Z,3.75
2023-03-29T03:28:24.342Z,4.38
2023-03-29T03:30:51.330Z,4.70
2023-03-29T03:33:19.239Z,4.22
2023-03-29T03:35:46.518Z,4.68
2023-03-29T03:38:13.320Z,4.47
2023-03-29T03:40:39.988Z,4.93
2023-03-29T03:43:06.958Z,5.20
2023-03-29T03:45:33.769Z,4.78
2023-03-29T03:48:00.594Z,5.35
2023-03-29T03:50:27.438Z,4.13
2023-03-29T03:52:54.079Z,4.97
2023-03-29T03:55:21.991Z,3.95
2023-03-29T03:57:48.821Z,4.68
2023-03-29T04:00:21.458Z,3.97
2023-03-29T04:02:49.319Z,4.13
2023-03-29T04:05:17.163Z,4.72
2023-03-29T04:07:43.843Z,4.40
2023-03-29T04:10:11.152Z,4.95
2023-03-29T04:12:38.738Z,3.47
2023-03-29T04:15:06.302Z,4.93
2023-03-29T04:17:32.988Z,4.50
2023-03-29T04:20:01.275Z,4.47
2023-03-29T04:22:28.056Z,4.63
2023-03-29T04:24:54.735Z,4.93
2023-03-29T04:27:21.530Z,4.50
2023-03-29T04:29:48.864Z,4.57
2023-03-29T04:32:15.685Z,4.85
2023-03-29T04:34:42.332Z,6.47
2023-03-29T04:37:10.712Z,7.85
2023-03-29T04:39:37.827Z,6.30
2023-03-29T04:42:05.273Z,4.78
2023-03-29T04:44:34.936Z,6.15
2023-03-29T04:47:02.037Z,5.28
2023-03-29T04:49:29.062Z,5.00
2023-03-29T04:51:55.858Z,5.00
2023-03-29T04:54:22.642Z,4.65
2023-03-29T04:56:49.363Z,4.82
2023-03-29T04:59:16.049Z,4.75
2023-03-29T05:01:42.732Z,4.50
2023-03-29T05:04:12.477Z,5.10
2023-03-29T05:06:40.231Z,5.68
2023-03-29T05:09:07.410Z,5.55
2023-03-29T05:11:34.382Z,5.43
2023-03-29T05:14:03.431Z,5.70
2023-03-29T05:16:30.455Z,4.70
2023-03-29T05:18:58.772Z,5.38
2023-03-29T05:21:28.424Z,5.30
2023-03-29T05:23:55.653Z,5.50
2023-03-29T05:26:23.227Z,5.10
2023-03-29T05:28:50.703Z,5.75
2023-03-29T05:31:17.721Z,5.80
2023-03-29T05:33:44.446Z,5.65
2023-03-29T05:36:14.105Z,7.38
2023-03-29T05:38:49.935Z,6.28
2023-03-29T05:41:17.891Z,5.70
2023-03-29T05:43:44.691Z,5.70
2023-03-29T05:46:12.482Z,4.78
2023-03-29T05:48:39.342Z,6.43
2023-03-29T05:51:06.220Z,5.65
2023-03-29T05:53:33.173Z,6.20
2023-03-29T05:55:59.826Z,5.30
2023-03-29T05:58:28.366Z,5.68
2023-03-29T06:00:55.496Z,5.63
2023-03-29T06:03:27.586Z,6.70
2023-03-29T06:06:00.474Z,5.60
2023-03-29T06:08:28.453Z,5.85
2023-03-29T06:11:02.475Z,5.30
2023-03-29T06:13:31.922Z,6.68
2023-03-29T06:15:58.636Z,6.35
2023-03-29T06:18:25.901Z,6.45
2023-03-29T06:20:53.285Z,6.68
2023-03-29T06:23:20.859Z,6.57
2023-03-29T06:25:47.988Z,6.95
2023-03-29T06:28:15.377Z,6.78
2023-03-29T06:30:42.124Z,6.80
2023-03-29T06:33:09.605Z,6.40
2023-03-29T06:35:37.003Z,5.22
2023-03-29T06:38:04.765Z,5.90
2023-03-29T06:40:31.496Z,6.22
2023-03-29T06:42:59.296Z,7.78
2023-03-29T06:45:29.328Z,6.57
2023-03-29T06:47:56.557Z,6.25
2023-03-29T06:50:23.580Z,7.53
2023-03-29T06:52:50.494Z,6.93
2023-03-29T06:55:18.380Z,7.72
2023-03-29T06:57:45.114Z,12.07
2023-03-29T07:00:18.253Z,8.55
2023-03-29T07:02:46.094Z,7.30
2023-03-29T07:05:13.832Z,6.40
2023-03-29T07:08:11.298Z,6.20
2023-03-29T07:10:41.073Z,7.13
2023-03-29T07:13:11.083Z,7.10
2023-03-29T07:15:38.002Z,6.93
2023-03-29T07:18:05.400Z,7.03
2023-03-29T07:20:33.742Z,6.97
2023-03-29T07:23:00.733Z,8.02
2023-03-29T07:25:29.937Z,7.80
2023-03-29T07:27:56.681Z,7.28
2023-03-29T07:30:29.667Z,7.68
2023-03-29T07:32:59.001Z,6.72
2023-03-29T07:35:26.977Z,8.05
2023-03-29T07:37:55.535Z,7.47
2023-03-29T07:40:26.234Z,8.88
2023-03-29T07:42:54.981Z,8.45
2023-03-29T07:45:26.762Z,8.10
2023-03-29T07:47:57.895Z,7.68
2023-03-29T07:50:25.768Z,8.85
2023-03-29T07:52:53.893Z,8.55
2023-03-29T07:55:20.748Z,8.18
2023-03-29T07:57:49.432Z,9.52
2023-03-29T08:00:17.212Z,9.02
2023-03-29T08:02:47.997Z,9.95
2023-03-29T08:05:18.993Z,9.65
2023-03-29T08:07:50.418Z,8.85
2023-03-29T08:10:19.271Z,9.27
2023-03-29T08:12:47.429Z,6.93
2023-03-29T08:15:14.781Z,9.10
2023-03-29T08:17:42.190Z,10.15
2023-03-29T08:20:11.986Z,10.30
2023-03-29T08:22:39.157Z,9.13
2023-03-29T08:25:07.294Z,8.80
2023-03-29T08:27:34.940Z,8.70
2023-03-29T08:30:01.982Z,10.13
2023-03-29T08:32:28.688Z,8.27
2023-03-29T08:34:55.466Z,10.07
2023-03-29T08:37:24.500Z,12.48
2023-03-29T08:39:51.323Z,10.13
2023-03-29T08:42:38.043Z,9.63
2023-03-29T08:45:19.939Z,6.25
2023-03-29T08:47:53.469Z,8.48
2023-03-29T08:50:27.256Z,9.48
2023-03-29T08:52:58.955Z,8.02
2023-03-29T08:55:36.944Z,9.40
2023-03-29T08:58:08.079Z,10.13
2023-03-29T09:00:45.945Z,11.95
2023-03-29T09:03:23.243Z,10.85
2023-03-29T09:06:02.858Z,11.98
2023-03-29T09:08:29.877Z,10.75
2023-03-29T09:11:24.228Z,11.60
2023-03-29T09:14:25.814Z,9.55
2023-03-29T09:17:33.298Z,6.20
2023-03-29T09:20:17.415Z,9.98
2023-03-29T09:23:01.766Z,11.82
2023-03-29T09:26:05.301Z,7.47
2023-03-29T09:28:40.051Z,9.18
2023-03-29T09:33:43.553Z,8.88
2023-03-29T09:36:10.194Z,11.68
2023-03-29T09:38:43.632Z,13.20
2023-03-29T09:41:26.466Z,6.05
2023-03-29T09:43:55.922Z,11.68
2023-03-29T09:46:36.857Z,13.38
2023-03-29T09:49:06.372Z,6.15
2023-03-29T09:51:33.860Z,11.27
2023-03-29T09:54:01.087Z,10.82
2023-03-29T09:56:28.854Z,7.82
2023-03-29T09:58:55.778Z,9.60
2023-03-29T10:01:22.535Z,13.82
2023-03-29T10:03:53.204Z,12.63
2023-03-29T10:06:23.543Z,12.68
2023-03-29T10:08:52.739Z,12.98
2023-03-29T10:11:38.997Z,12.35
2023-03-29T10:14:12.792Z,13.70
2023-03-29T10:16:46.072Z,14.17
2023-03-29T10:19:36.949Z,12.32
2023-03-29T10:22:28.406Z,13.10
2023-03-29T10:24:57.145Z,9.50
2023-03-29T10:27:28.903Z,11.07
2023-03-29T10:29:57.993Z,14.32
2023-03-29T10:32:34.756Z,13.90
2023-03-29T10:35:12.236Z,14.32
2023-03-29T10:37:50.054Z,16.52
2023-03-29T10:40:32.064Z,13.07
2023-03-29T10:43:01.176Z,13.70
2023-03-29T10:45:35.364Z,17.33
2023-03-29T10:48:04.983Z,18.40
2023-03-29T10:50:38.101Z,13.38
2023-03-29T10:53:14.848Z,11.50
2023-03-29T10:55:52.127Z,13.25
2023-03-29T10:58:41.156Z,18.52
2023-03-29T11:01:17.386Z,15.57
2023-03-29T11:04:19.166Z,15.80
2023-03-29T11:07:10.929Z,17.60
2023-03-29T11:09:52.746Z,13.98
2023-03-29T11:12:47.474Z,10.50
2023-03-29T11:15:27.180Z,16.40
2023-03-29T11:18:02.968Z,13.23
2023-03-29T11:20:45.940Z,10.80
2023-03-29T11:23:41.437Z,7.88
2023-03-29T11:28:55.303Z,11.20
2023-03-29T11:36:53.782Z,11.18
2023-03-29T11:39:44.244Z,8.52
2023-03-29T11:42:23.239Z,10.45
2023-03-29T11:44:55.116Z,10.57
2023-03-29T11:47:23.663Z,11.13
2023-03-29T11:50:02.584Z,8.38
2023-03-29T11:52:34.032Z,9.48
2023-03-29T11:55:05.427Z,12.52
2023-03-29T11:57:36.403Z,11.15
2023-03-29T12:00:14.540Z,12.40
2023-03-29T12:02:52.446Z,13.00
2023-03-29T12:05:24.077Z,13.68
2023-03-29T12:07:56.125Z,11.55
2023-03-29T12:10:27.334Z,11.88
2023-03-29T12:13:06.096Z,11.23
2023-03-29T12:15:42.715Z,15.75
2023-03-29T12:18:30.424Z,17.77
2023-03-29T12:21:00.325Z,17.05
2023-03-29T12:23:32.118Z,15.93
2023-03-29T12:26:20.925Z,14.07
2023-03-29T12:28:53.731Z,11.02
2023-03-29T12:31:33.976Z,14.30
2023-03-29T12:34:14.412Z,14.55
2023-03-29T12:36:52.095Z,16.85
2023-03-29T12:39:20.902Z,13.90
2023-03-29T12:41:51.611Z,11.63
2023-03-29T12:44:22.438Z,16.40
2023-03-29T12:46:59.148Z,13.30
2023-03-29T12:49:35.807Z,15.88
2023-03-29T12:52:08.256Z,14.73
2023-03-29T12:54:34.885Z,12.65
2023-03-29T12:57:20.166Z,15.77
2023-03-29T12:59:49.545Z,13.45
2023-03-29T13:02:17.519Z,11.52
2023-03-29T13:04:52.320Z,15.60
2023-03-29T13:07:22.266Z,15.73
2023-03-29T13:10:03.141Z,15.13
2023-03-29T13:12:40.579Z,16.50
2023-03-29T13:15:19.189Z,13.52
2023-03-29T13:18:12.360Z,14.98
2023-03-29T13:21:03.453Z,17.20
2023-03-29T13:23:54.741Z,15.48
2023-03-29T13:26:43.276Z,11.38
2023-03-29T13:29:30.252Z,16.63
2023-03-29T13:32:27.239Z,14.05
2023-03-29T13:35:11.659Z,12.20
2023-03-29T13:38:00.689Z,12.73
2023-03-29T13:40:30.198Z,13.23
2023-03-29T13:43:24.667Z,14.10
2023-03-29T13:45:57.525Z,9.68
2023-03-29T13:48:37.636Z,11.55
2023-03-29T13:51:18.629Z,10.13
2023-03-29T13:53:56.194Z,11.52
2023-03-29T13:56:32.843Z,9.55
2023-03-29T13:59:11.618Z,8.50
2023-03-29T14:01:55.049Z,8.82
2023-03-29T14:04:25.564Z,9.00
2023-03-29T14:06:55.985Z,8.57
2023-03-29T14:09:35.962Z,8.50
2023-03-29T14:12:02.776Z,8.57
2023-03-29T14:14:32.688Z,6.75
2023-03-29T14:17:01.395Z,8.25
2023-03-29T14:19:37.534Z,6.22
2023-03-29T14:22:10.764Z,7.28
2023-03-29T14:24:39.908Z,6.30
2023-03-29T14:27:10.128Z,5.85
2023-03-29T14:29:36.962Z,6.47
2023-03-29T14:32:16.913Z,5.25
2023-03-29T14:34:47.433Z,6.38
2023-03-29T14:37:18.708Z,8.35
2023-03-29T14:39:45.879Z,8.48
2023-03-29T14:42:20.792Z,7.55
2023-03-29T14:44:49.029Z,8.25
2023-03-29T14:47:29.261Z,9.02
2023-03-29T14:50:00.606Z,8.43
2023-03-29T14:52:31.946Z,9.73
2023-03-29T14:55:00.842Z,8.18
2023-03-29T14:57:33.043Z,8.05
2023-03-29T15:00:26.039Z,8.18
2023-03-29T15:02:57.410Z,7.63
2023-03-29T15:05:34.634Z,7.22
2023-03-29T15:08:02.700Z,7.45
2023-03-29T15:10:32.774Z,7.32
2023-03-29T15:13:02.888Z,5.75
2023-03-29T15:15:32.454Z,5.22
2023-03-29T15:17:59.069Z,5.45
2023-03-29T15:20:33.137Z,4.40
2023-03-29T15:23:01.563Z,5.40
2023-03-29T15:25:37.652Z,4.32
2023-03-29T15:28:04.701Z,4.82
2023-03-29T15:30:38.664Z,5.20
2023-03-29T15:33:19.237Z,5.55
2023-03-29T15:35:49.926Z,5.18
2023-03-29T15:38:16.594Z,4.13
2023-03-29T15:40:43.369Z,4.57
2023-03-29T15:43:11.065Z,4.88
2023-03-29T15:45:37.803Z,4.32
2023-03-29T15:48:22.991Z,3.88
2023-03-29T15:50:50.076Z,3.67
2023-03-29T15:53:23.751Z,3.53
2023-03-29T15:55:53.482Z,3.28
2023-03-29T15:58:25.441Z,2.80
2023-03-29T16:01:19.394Z,2.90
2023-03-29T16:03:47.785Z,3.53
2023-03-29T16:06:17.285Z,3.65
2023-03-29T16:08:44.049Z,3.30
2023-03-29T16:11:11.771Z,3.03
2023-03-29T16:13:38.561Z,3.80
2023-03-29T16:16:05.870Z,3.20
2023-03-29T16:18:32.755Z,3.35
2023-03-29T16:21:09.900Z,3.88
2023-03-29T16:23:38.571Z,3.33
2023-03-29T16:26:06.465Z,4.35
2023-03-29T16:28:33.272Z,3.60
2023-03-29T16:30:59.916Z,3.58
2023-03-29T16:33:26.965Z,4.22
2023-03-29T16:35:53.611Z,3.92
2023-03-29T16:38:21.655Z,3.60
2023-03-29T16:40:48.526Z,4.00
2023-03-29T16:43:16.138Z,3.47
2023-03-29T16:45:42.885Z,4.07
2023-03-29T16:48:17.067Z,3.75
2023-03-29T16:50:50.660Z,3.55
2023-03-29T16:53:21.324Z,4.22
2023-03-29T16:55:48.202Z,4.20
2023-03-29T16:58:15.533Z,4.30
2023-03-29T17:00:43.387Z,3.72
2023-03-29T17:03:11.218Z,4.38
2023-03-29T17:05:41.478Z,4.20
2023-03-29T17:08:10.027Z,4.50
2023-03-29T17:10:40.713Z,6.18
2023-03-29T17:13:08.085Z,5.07
2023-03-29T17:15:36.632Z,5.22
2023-03-29T17:18:05.409Z,5.05
2023-03-29T17:20:32.209Z,4.85
2023-03-29T17:22:58.954Z,4.53
2023-03-29T17:25:25.671Z,4.90
2023-03-29T17:27:53.971Z,4.78
2023-03-29T17:30:20.695Z,5.30
2023-03-29T17:32:47.397Z,5.57
2023-03-29T17:35:14.196Z,5.50
2023-03-29T17:37:41.930Z,5.85
2023-03-29T17:40:10.803Z,5.68
2023-03-29T17:42:37.704Z,5.80
2023-03-29T17:45:04.975Z,5.97
2023-03-29T17:47:31.688Z,5.80
2023-03-29T17:49:58.549Z,5.75
2023-03-29T17:52:25.403Z,5.68
2023-03-29T17:54:52.145Z,6.43
2023-03-29T17:57:18.844Z,5.95
2023-03-29T17:59:45.610Z,6.72
2023-03-29T18:02:17.926Z,5.78
2023-03-29T18:04:45.241Z,5.63
2023-03-29T18:07:12.523Z,6.25
2023-03-29T18:09:39.199Z,7.20
2023-03-29T18:12:06.679Z,5.82
2023-03-29T18:14:33.620Z,7.70
2023-03-29T18:17:00.553Z,6.38
2023-03-29T18:19:27.668Z,9.07
2023-03-29T18:21:54.376Z,10.05
2023-03-29T18:24:21.264Z,8.10
2023-03-29T18:26:47.985Z,7.15
2023-03-29T18:29:14.681Z,7.18
2023-03-29T18:31:41.621Z,6.43
2023-03-29T18:34:08.610Z,7.20
2023-03-29T18:36:35.320Z,7.80
2023-03-29T18:39:05.913Z,8.27
2023-03-29T18:41:34.644Z,7.38
2023-03-29T18:44:01.535Z,7.40
2023-03-29T18:46:31.123Z,8.02
2023-03-29T18:48:59.428Z,8.20
2023-03-29T18:51:27.951Z,7.55
2023-03-29T18:53:55.874Z,8.90
2023-03-29T18:56:23.138Z,8.52
2023-03-29T18:58:49.909Z,8.57
2023-03-29T19:01:16.731Z,8.50
2023-03-29T19:03:43.868Z,7.82
2023-03-29T19:06:11.765Z,8.25
2023-03-29T19:08:39.614Z,7.90
2023-03-29T19:11:08.386Z,7.93
2023-03-29T19:13:35.873Z,8.38
2023-03-29T19:16:03.708Z,7.32
2023-03-29T19:18:30.862Z,7.80
2023-03-29T19:20:57.732Z,8.05
2023-03-29T19:23:27.129Z,8.20
2023-03-29T19:25:55.840Z,8.60
2023-03-29T19:28:23.053Z,8.43
2023-03-29T19:30:49.886Z,7.97
2023-03-29T19:33:17.041Z,8.13
2023-03-29T19:35:44.167Z,7.68
2023-03-29T19:38:11.036Z,7.65
2023-03-29T19:40:38.196Z,7.97
2023-03-29T19:43:05.062Z,7.35
2023-03-29T19:45:31.677Z,8.25
2023-03-29T19:48:02.887Z,8.70
2023-03-29T19:50:31.501Z,8.57
2023-03-29T19:52:58.404Z,9.27
2023-03-29T19:55:25.930Z,9.00
2023-03-29T19:57:52.707Z,11.02
2023-03-29T20:00:24.206Z,8.52
2023-03-29T20:02:55.579Z,7.95
2023-03-29T20:05:23.982Z,8.15
2023-03-29T20:07:50.651Z,8.27
2023-03-29T20:10:17.503Z,8.45
2023-03-29T20:12:44.195Z,8.13
2023-03-29T20:15:11.150Z,7.63
2023-03-29T20:17:40.715Z,8.18
2023-03-29T20:20:10.052Z,7.72
2023-03-29T20:22:38.086Z,8.13
2023-03-29T20:25:05.492Z,8.88
2023-03-29T20:27:32.218Z,8.07
2023-03-29T20:29:59.050Z,8.65
2023-03-29T20:32:27.742Z,7.82
2023-03-29T20:34:54.519Z,8.35
2023-03-29T20:37:22.945Z,7.20
2023-03-29T20:39:49.976Z,8.10
2023-03-29T20:42:16.630Z,8.77
2023-03-29T20:44:50.357Z,8.05
2023-03-29T20:47:18.941Z,7.03
2023-03-29T20:49:45.623Z,7.93
2023-03-29T20:52:16.878Z,8.30
2023-03-29T20:54:45.273Z,8.30
2023-03-29T20:57:15.942Z,6.88
2023-03-29T20:59:44.728Z,8.15
2023-03-29T21:02:17.334Z,7.72
2023-03-29T21:04:44.600Z,7.88
2023-03-29T21:07:11.268Z,6.80
2023-03-29T21:09:37.981Z,7.88
2023-03-29T21:12:04.803Z,8.02
2023-03-29T21:14:32.953Z,6.55
2023-03-29T21:16:59.719Z,7.10
2023-03-29T21:19:26.521Z,6.55
2023-03-29T21:21:54.848Z,7.20
2023-03-29T21:24:22.158Z,7.10
2023-03-29T21:26:49.008Z,5.68
2023-03-29T21:29:15.910Z,6.57
2023-03-29T21:31:42.800Z,6.75
2023-03-29T21:34:09.623Z,6.15
2023-03-29T21:36:36.622Z,6.70
2023-03-29T21:39:03.429Z,7.63
2023-03-29T21:41:30.535Z,6.78
2023-03-29T21:43:57.226Z,4.72
2023-03-29T21:46:24.844Z,7.15
2023-03-29T21:48:54.550Z,6.47
2023-03-29T21:51:21.350Z,6.88
2023-03-29T21:53:47.981Z,6.00
2023-03-29T21:56:15.332Z,6.22
2023-03-29T21:58:42.189Z,6.47
2023-03-29T22:01:10.450Z,6.85
2023-03-29T22:03:38.024Z,7.15
2023-03-29T22:06:10.470Z,6.32
2023-03-29T22:08:40.485Z,6.68
2023-03-29T22:11:21.253Z,5.88
2023-03-29T22:13:47.956Z,6.65
2023-03-29T22:16:18.246Z,6.88
2023-03-29T22:18:49.114Z,6.40
2023-03-29T22:21:22.719Z,6.97
2023-03-29T22:23:51.950Z,6.47
2023-03-29T22:26:30.921Z,5.90
2023-03-29T22:29:00.228Z,6.32
2023-03-29T22:31:28.376Z,7.15
2023-03-29T22:33:55.572Z,6.95
2023-03-29T22:36:27.957Z,6.88
2023-03-29T22:38:54.805Z,6.65
2023-03-29T22:41:23.673Z,6.60
2023-03-29T22:43:55.414Z,6.30
2023-03-29T22:46:23.030Z,6.70
2023-03-29T22:48:50.286Z,6.78
2023-03-29T22:51:17.430Z,6.93
2023-03-29T22:53:44.186Z,6.55
2023-03-29T22:56:10.851Z,6.90
2023-03-29T22:58:37.872Z,6.85
2023-03-29T23:01:05.870Z,7.50
2023-03-29T23:03:32.937Z,6.70
2023-03-29T23:06:02.381Z,5.97
2023-03-29T23:08:31.154Z,5.80
2023-03-29T23:10:58.035Z,5.93
2023-03-29T23:13:28.522Z,5.13
2023-03-29T23:15:58.734Z,4.43
2023-03-29T23:18:27.576Z,4.07
2023-03-29T23:20:56.401Z,4.28
2023-03-29T23:23:24.578Z,3.55
2023-03-29T23:25:52.857Z,3.13
2023-03-29T23:28:23.485Z,3.97
2023-03-29T23:31:00.499Z,3.50
2023-03-29T23:33:30.513Z,2.88
2023-03-29T23:35:57.348Z,2.70
2023-03-29T23:38:24.173Z,2.90
2023-03-29T23:40:55.732Z,1.95
2023-03-29T23:43:22.383Z,3.13
2023-03-29T23:45:56.348Z,2.90
2023-03-29T23:48:23.888Z,2.78
2023-03-29T23:50:50.614Z,2.25
2023-03-29T23:53:17.634Z,2.67
2023-03-29T23:55:44.951Z,2.40
2023-03-29T23:58:11.662Z,2.35
